KCMY

Sparta / Fort Mc Coy Airport

Sparta, Wisconsin, USA
METAR KCMY 211255Z AUTO 30005KT 10SM CLR M12/M15 A3055 RMK AO2 T11251147
Observed Flight Rules
Feb-21 @ 12:55 UTC (21 minutes ago) Visual Flight Rules
Wind Visibility Clouds
300° at 5 knots 10 miles
  • Clear skies
Temperatures Readings
Current -13°C / 9°F
Dewpoint -15°C / 5°F
Humidity 85%
Altimeter 30.55" Hg
Pressure 1035 hPa
Elevation 256
METAR KCMY 211255Z AUTO 30005KT 10SM CLR M12/M15 A3055 RMK AO2 T11251147
Observed Flight Rules
Feb-21 @ 12:55 UTC
(21 minutes ago)
VFR
Wind Visibility
300° at 5 knots 10 miles
Clouds
  • Clear skies
Temperature Dewpoint
-13°C / 9°F -15°C / 5°F
Humidity Altimeter Pressure
85% 30.55" Hg 1035 hPa